Time;durP1;ratioP1;P1;durP2;ratioP2;P2;SDS_P1;SDS_P2;PMS_P1;PMS_P2;Temp;Humidity;BMP_temperature;BMP_pressure;BME280_temperature;BME280_humidity;BME280_pressure;Samples;Min_cycle;Max_cycle;Signal;HPM_P1;HPM_P2
2024/03/30 00:00:52;;;;;;;23.05;5.55;;;;;;;;;;5097471;28;20377;-80
2024/03/30 00:03:18;;;;;;;22.00;5.85;;;;;;;;;;5097888;28;20465;-80
2024/03/30 00:05:44;;;;;;;28.63;6.28;;;;;;;;;;5098507;28;20385;-81
2024/03/30 00:08:10;;;;;;;35.03;6.80;;;;;;;;;;5097644;28;20789;-80
2024/03/30 00:10:37;;;;;;;30.33;6.30;;;;;;;;;;5097249;28;20460;-80
2024/03/30 00:13:06;;;;;;;22.92;5.85;;;;;;;;;;5097639;28;20765;-80
2024/03/30 00:15:32;;;;;;;24.65;6.13;;;;;;;;;;5097463;28;20413;-80
2024/03/30 00:18:01;;;;;;;20.30;5.90;;;;;;;;;;5096882;28;20712;-80
2024/03/30 00:20:28;;;;;;;17.23;5.03;;;;;;;;;;5097421;28;20381;-81
2024/03/30 00:22:54;;;;;;;25.48;6.50;;;;;;;;;;5096744;28;20413;-80
2024/03/30 00:25:21;;;;;;;20.55;5.63;;;;;;;;;;5096660;28;20370;-80
2024/03/30 00:27:47;;;;;;;22.05;5.70;;;;;;;;;;5097376;28;20458;-81
2024/03/30 00:30:13;;;;;;;21.30;5.88;;;;;;;;;;5097114;28;20402;-80
2024/03/30 00:32:39;;;;;;;22.77;5.57;;;;;;;;;;5096817;28;20839;-80
2024/03/30 00:35:05;;;;;;;23.80;5.82;;;;;;;;;;5097148;28;20390;-80
2024/03/30 00:37:31;;;;;;;19.30;5.93;;;;;;;;;;5096783;28;20435;-80
2024/03/30 00:39:57;;;;;;;28.88;5.90;;;;;;;;;;5103961;28;20441;-80
2024/03/30 00:42:23;;;;;;;22.92;5.75;;;;;;;;;;5117707;28;20432;-80
2024/03/30 00:44:49;;;;;;;17.77;5.67;;;;;;;;;;5100323;28;20432;-80
2024/03/30 00:47:15;;;;;;;19.02;5.75;;;;;;;;;;5096744;28;20943;-80
2024/03/30 00:49:41;;;;;;;21.63;5.63;;;;;;;;;;5096881;28;20386;-80
2024/03/30 00:52:08;;;;;;;15.23;5.20;;;;;;;;;;5096906;28;20374;-81
2024/03/30 00:54:34;;;;;;;22.67;5.55;;;;;;;;;;5096677;28;20388;-80
2024/03/30 00:57:00;;;;;;;21.13;5.38;;;;;;;;;;5096946;28;20918;-81
2024/03/30 00:59:26;;;;;;;19.40;5.47;;;;;;;;;;5096249;28;20413;-80
2024/03/30 01:01:52;;;;;;;24.35;5.80;;;;;;;;;;5096776;28;20405;-80
2024/03/30 01:04:18;;;;;;;20.60;5.53;;;;;;;;;;5096512;28;20378;-80
2024/03/30 01:06:44;;;;;;;25.67;5.78;;;;;;;;;;5096718;28;20453;-80
2024/03/30 01:09:10;;;;;;;25.95;5.95;;;;;;;;;;5095923;28;20374;-80
2024/03/30 01:11:37;;;;;;;22.52;6.05;;;;;;;;;;5096301;28;20385;-80
2024/03/30 01:14:04;;;;;;;26.60;5.93;;;;;;;;;;5096512;28;20378;-80
2024/03/30 01:16:30;;;;;;;22.10;5.82;;;;;;;;;;5096856;28;20705;-81
2024/03/30 01:18:56;;;;;;;21.35;6.05;;;;;;;;;;5096279;28;20385;-81
2024/03/30 01:21:22;;;;;;;15.93;5.03;;;;;;;;;;5095888;28;20856;-80
2024/03/30 01:23:48;;;;;;;21.02;5.03;;;;;;;;;;5095473;28;20371;-80
2024/03/30 01:26:18;;;;;;;23.90;5.78;;;;;;;;;;5096215;28;20470;-81
2024/03/30 01:28:44;;;;;;;20.60;5.80;;;;;;;;;;5096031;28;20374;-81
2024/03/30 01:31:14;;;;;;;26.97;6.03;;;;;;;;;;5095873;28;20462;-80
2024/03/30 01:33:40;;;;;;;22.95;5.75;;;;;;;;;;5095896;28;20385;-81
2024/03/30 01:36:07;;;;;;;32.90;6.78;;;;;;;;;;5095855;28;20381;-80
2024/03/30 01:38:33;;;;;;;23.85;5.13;;;;;;;;;;5095517;28;20382;-80
2024/03/30 01:40:59;;;;;;;21.48;6.05;;;;;;;;;;5095832;28;20378;-80
2024/03/30 01:43:25;;;;;;;30.53;6.40;;;;;;;;;;5096172;28;20378;-81
2024/03/30 01:45:52;;;;;;;32.38;6.72;;;;;;;;;;5095226;28;20390;-80
2024/03/30 01:48:18;;;;;;;27.73;6.20;;;;;;;;;;5092872;28;20370;-80
2024/03/30 01:50:44;;;;;;;31.80;6.60;;;;;;;;;;5094837;28;20393;-80
2024/03/30 01:53:14;;;;;;;27.42;6.50;;;;;;;;;;5078638;28;20386;-80
2024/03/30 01:55:41;;;;;;;33.65;6.95;;;;;;;;;;5098741;28;20416;-80
2024/03/30 01:58:07;;;;;;;24.70;6.68;;;;;;;;;;5097285;28;20406;-80
2024/03/30 02:00:33;;;;;;;31.80;7.00;;;;;;;;;;5081090;28;20371;-80
2024/03/30 02:03:00;;;;;;;33.67;6.75;;;;;;;;;;5096241;28;20764;-80
2024/03/30 02:05:27;;;;;;;28.63;6.35;;;;;;;;;;5095320;28;20375;-80
2024/03/30 02:07:54;;;;;;;24.08;5.63;;;;;;;;;;5096298;28;20681;-80
2024/03/30 02:10:21;;;;;;;19.95;5.13;;;;;;;;;;5097095;28;20431;-80
2024/03/30 02:12:47;;;;;;;27.20;5.53;;;;;;;;;;5100150;28;20412;-80
2024/03/30 02:15:13;;;;;;;17.40;5.40;;;;;;;;;;5095545;28;20385;-80
2024/03/30 02:17:39;;;;;;;24.40;6.00;;;;;;;;;;5077098;28;20396;-80
2024/03/30 02:20:05;;;;;;;27.33;6.13;;;;;;;;;;5095746;28;20381;-80
2024/03/30 02:22:31;;;;;;;23.27;5.97;;;;;;;;;;5077582;28;20409;-80
2024/03/30 02:24:57;;;;;;;21.38;5.82;;;;;;;;;;5095087;28;20374;-80
2024/03/30 02:27:23;;;;;;;17.00;5.20;;;;;;;;;;5095302;28;20413;-80
2024/03/30 02:29:52;;;;;;;22.33;5.53;;;;;;;;;;5076857;28;20453;-80
2024/03/30 02:32:18;;;;;;;23.15;5.60;;;;;;;;;;5095390;28;20460;-80
2024/03/30 02:34:44;;;;;;;22.87;5.33;;;;;;;;;;5098554;28;20386;-80
2024/03/30 02:37:11;;;;;;;26.48;5.80;;;;;;;;;;5098377;28;20502;-80
2024/03/30 02:39:37;;;;;;;24.13;5.72;;;;;;;;;;5099914;28;20401;-80
2024/03/30 02:42:03;;;;;;;17.95;4.63;;;;;;;;;;5099387;28;20439;-80
2024/03/30 02:44:29;;;;;;;26.63;5.75;;;;;;;;;;5091358;28;20392;-80
2024/03/30 02:46:54;;;;;;;26.90;5.90;;;;;;;;;;5101758;28;20385;-80
2024/03/30 02:49:20;;;;;;;30.77;6.43;;;;;;;;;;5098742;28;20488;-80
2024/03/30 02:51:46;;;;;;;27.50;6.20;;;;;;;;;;5099146;28;20396;-80
2024/03/30 02:54:12;;;;;;;24.73;5.70;;;;;;;;;;5081212;28;20397;-80
2024/03/30 02:56:38;;;;;;;18.95;5.00;;;;;;;;;;5093271;28;20745;-80
2024/03/30 02:59:04;;;;;;;23.58;5.35;;;;;;;;;;5098918;28;20464;-80
2024/03/30 03:01:30;;;;;;;26.50;5.50;;;;;;;;;;5097378;28;20402;-80
2024/03/30 03:03:56;;;;;;;21.98;5.35;;;;;;;;;;5098229;28;20427;-80
2024/03/30 03:06:22;;;;;;;20.88;5.20;;;;;;;;;;5098402;28;20378;-80
2024/03/30 03:08:48;;;;;;;18.10;4.70;;;;;;;;;;5098677;28;20381;-80
2024/03/30 03:11:14;;;;;;;19.97;5.10;;;;;;;;;;5098593;28;20401;-80
2024/03/30 03:13:40;;;;;;;28.30;5.03;;;;;;;;;;5098845;28;20381;-80
2024/03/30 03:16:07;;;;;;;20.02;5.38;;;;;;;;;;5081095;28;20382;-80
2024/03/30 03:18:33;;;;;;;18.88;4.85;;;;;;;;;;5098679;28;20395;-80
2024/03/30 03:20:59;;;;;;;20.90;5.32;;;;;;;;;;5098453;28;20370;-80
2024/03/30 03:23:25;;;;;;;15.60;4.78;;;;;;;;;;5098557;28;20828;-80
2024/03/30 03:25:52;;;;;;;20.98;5.63;;;;;;;;;;5098395;28;20890;-80
2024/03/30 03:28:18;;;;;;;21.25;5.80;;;;;;;;;;5098618;28;20389;-80
2024/03/30 03:30:44;;;;;;;25.45;5.88;;;;;;;;;;5098431;28;20397;-80
2024/03/30 03:33:10;;;;;;;29.90;5.70;;;;;;;;;;5097716;28;20409;-80
2024/03/30 03:35:36;;;;;;;27.38;5.60;;;;;;;;;;5097870;28;20412;-80
2024/03/30 03:38:02;;;;;;;23.90;5.33;;;;;;;;;;5079801;28;20394;-80
2024/03/30 03:40:28;;;;;;;23.23;5.70;;;;;;;;;;5097728;28;20385;-80
2024/03/30 03:42:54;;;;;;;26.25;5.40;;;;;;;;;;5098326;28;20412;-80
2024/03/30 03:45:20;;;;;;;31.50;5.95;;;;;;;;;;5097676;28;20385;-80
2024/03/30 03:47:46;;;;;;;26.37;6.30;;;;;;;;;;5097097;28;20816;-80
2024/03/30 03:50:12;;;;;;;21.08;4.90;;;;;;;;;;5080264;28;20386;-80
2024/03/30 03:52:38;;;;;;;23.65;4.82;;;;;;;;;;5097957;28;20443;-80
2024/03/30 03:55:04;;;;;;;25.35;5.20;;;;;;;;;;5097837;28;20386;-80
2024/03/30 03:57:30;;;;;;;27.80;4.85;;;;;;;;;;5097940;28;20370;-80
2024/03/30 03:59:56;;;;;;;25.42;5.53;;;;;;;;;;5098216;28;20771;-80
2024/03/30 04:02:22;;;;;;;26.45;4.53;;;;;;;;;;5098240;28;20416;-80
2024/03/30 04:04:50;;;;;;;17.60;4.53;;;;;;;;;;5096606;28;20461;-80
2024/03/30 04:07:16;;;;;;;19.25;4.32;;;;;;;;;;5098110;28;20390;-80
2024/03/30 04:09:42;;;;;;;16.98;4.47;;;;;;;;;;5097104;28;20374;-80
2024/03/30 04:12:08;;;;;;;20.87;4.30;;;;;;;;;;5097540;28;20386;-80
2024/03/30 04:14:34;;;;;;;19.70;5.10;;;;;;;;;;5096811;28;20389;-80
2024/03/30 04:17:00;;;;;;;18.23;4.40;;;;;;;;;;5097406;28;20384;-80
2024/03/30 04:19:26;;;;;;;15.80;4.00;;;;;;;;;;5097565;28;20477;-80
2024/03/30 04:21:56;;;;;;;19.98;4.68;;;;;;;;;;5096938;28;20496;-80
2024/03/30 04:24:22;;;;;;;18.70;4.60;;;;;;;;;;5097371;28;20374;-80
2024/03/30 04:26:48;;;;;;;22.65;4.43;;;;;;;;;;5097536;28;20831;-80
2024/03/30 04:29:14;;;;;;;13.77;4.10;;;;;;;;;;5097312;28;20431;-80
2024/03/30 04:31:40;;;;;;;15.47;3.53;;;;;;;;;;5096822;28;20809;-80
2024/03/30 04:34:06;;;;;;;18.90;4.15;;;;;;;;;;5097146;28;20390;-80
2024/03/30 04:36:32;;;;;;;24.30;4.82;;;;;;;;;;5097020;28;20396;-80
2024/03/30 04:38:58;;;;;;;19.90;4.25;;;;;;;;;;5079240;28;20390;-80
2024/03/30 04:41:24;;;;;;;19.73;4.57;;;;;;;;;;5097308;28;20932;-80
2024/03/30 04:43:50;;;;;;;14.48;4.13;;;;;;;;;;5097224;28;20405;-80
2024/03/30 04:46:16;;;;;;;16.80;3.58;;;;;;;;;;5097649;28;20383;-80
2024/03/30 04:48:43;;;;;;;14.93;4.40;;;;;;;;;;5096951;28;20366;-80
2024/03/30 04:51:10;;;;;;;15.97;3.93;;;;;;;;;;5096623;28;20382;-80
2024/03/30 04:53:36;;;;;;;14.73;4.10;;;;;;;;;;5096935;28;20386;-80
2024/03/30 04:56:02;;;;;;;19.15;3.97;;;;;;;;;;5096714;28;20378;-80
2024/03/30 04:58:29;;;;;;;19.15;4.13;;;;;;;;;;5095492;28;20394;-80
2024/03/30 05:01:00;;;;;;;15.88;3.65;;;;;;;;;;5096738;28;20548;-80
2024/03/30 05:03:26;;;;;;;17.55;3.88;;;;;;;;;;5097341;28;20396;-80
2024/03/30 05:05:52;;;;;;;15.27;4.15;;;;;;;;;;5096999;28;20374;-80
2024/03/30 05:08:18;;;;;;;14.75;4.10;;;;;;;;;;5096022;28;20394;-80
2024/03/30 05:10:45;;;;;;;20.85;4.55;;;;;;;;;;5097025;28;20851;-80
2024/03/30 05:13:11;;;;;;;17.27;4.55;;;;;;;;;;5097273;28;20389;-80
2024/03/30 05:15:39;;;;;;;14.57;3.83;;;;;;;;;;5096482;28;20858;-80
2024/03/30 05:18:05;;;;;;;15.77;3.67;;;;;;;;;;5096418;28;20366;-80
2024/03/30 05:23:33;;;;;;;20.43;4.43;;;;;;;;;;5061989;28;20402;-80
2024/03/30 05:26:00;;;;;;;17.42;3.78;;;;;;;;;;5095705;28;20382;-80
2024/03/30 05:28:30;;;;;;;20.02;3.70;;;;;;;;;;5089155;28;20400;-80
2024/03/30 05:30:57;;;;;;;22.20;4.03;;;;;;;;;;5095077;28;20432;-80
2024/03/30 05:33:23;;;;;;;16.77;3.65;;;;;;;;;;5097299;28;20917;-80
2024/03/30 05:35:50;;;;;;;18.30;3.67;;;;;;;;;;5097545;28;20402;-80
2024/03/30 05:38:17;;;;;;;20.77;4.00;;;;;;;;;;5099078;28;20392;-80
2024/03/30 05:40:43;;;;;;;22.73;4.18;;;;;;;;;;5097546;28;20388;-80
2024/03/30 05:43:09;;;;;;;17.17;3.50;;;;;;;;;;5097920;28;20477;-80
2024/03/30 05:45:36;;;;;;;22.05;3.90;;;;;;;;;;5080532;28;21142;-80
2024/03/30 05:48:03;;;;;;;15.20;3.33;;;;;;;;;;5096007;28;20378;-80
2024/03/30 05:50:29;;;;;;;13.45;3.17;;;;;;;;;;5096161;28;20771;-81
2024/03/30 05:52:56;;;;;;;15.48;3.42;;;;;;;;;;5096270;28;20373;-80
2024/03/30 05:55:22;;;;;;;19.52;3.70;;;;;;;;;;5096152;28;20374;-80
2024/03/30 05:57:48;;;;;;;22.63;3.83;;;;;;;;;;5095429;28;20378;-80
2024/03/30 06:00:15;;;;;;;19.43;3.90;;;;;;;;;;5096008;28;20397;-80
2024/03/30 06:02:42;;;;;;;15.67;3.53;;;;;;;;;;5095113;28;20408;-80
2024/03/30 06:05:08;;;;;;;12.05;2.97;;;;;;;;;;5096139;28;20378;-80
2024/03/30 06:07:34;;;;;;;14.55;3.42;;;;;;;;;;5095394;28;20419;-80
2024/03/30 06:10:00;;;;;;;14.00;3.38;;;;;;;;;;5095363;28;20464;-80
2024/03/30 06:12:26;;;;;;;23.13;3.35;;;;;;;;;;5095835;28;20420;-80
2024/03/30 06:14:52;;;;;;;13.93;3.20;;;;;;;;;;5095534;28;20385;-81
2024/03/30 06:17:18;;;;;;;16.95;3.53;;;;;;;;;;5095072;28;20382;-80
2024/03/30 06:19:44;;;;;;;17.80;3.35;;;;;;;;;;5091342;28;20380;-80
2024/03/30 06:22:11;;;;;;;19.63;3.83;;;;;;;;;;5096057;28;20401;-80
2024/03/30 06:24:38;;;;;;;21.25;3.60;;;;;;;;;;5095841;28;20840;-80
2024/03/30 06:27:06;;;;;;;17.55;3.50;;;;;;;;;;5095429;28;20393;-80
2024/03/30 06:29:32;;;;;;;10.63;3.17;;;;;;;;;;5095667;28;20382;-80
2024/03/30 06:31:58;;;;;;;15.93;3.05;;;;;;;;;;5095303;28;21202;-80
2024/03/30 06:34:24;;;;;;;26.08;4.35;;;;;;;;;;5095025;28;20406;-80
2024/03/30 06:36:50;;;;;;;17.63;3.65;;;;;;;;;;5095186;28;20381;-80
2024/03/30 06:39:16;;;;;;;18.17;3.95;;;;;;;;;;5095242;28;20393;-80
2024/03/30 06:44:27;;;;;;;15.90;3.50;;;;;;;;;;5095242;28;20497;-81
2024/03/30 06:46:53;;;;;;;14.95;3.65;;;;;;;;;;5095686;28;20427;-80
2024/03/30 06:49:19;;;;;;;12.40;3.05;;;;;;;;;;5095251;28;20397;-80
2024/03/30 06:51:47;;;;;;;15.77;3.38;;;;;;;;;;5095327;28;20408;-80
2024/03/30 06:54:13;;;;;;;20.65;3.75;;;;;;;;;;5094635;28;20395;-80
2024/03/30 06:56:39;;;;;;;18.10;3.92;;;;;;;;;;5094933;28;20413;-80
2024/03/30 06:59:05;;;;;;;14.43;3.58;;;;;;;;;;5095162;28;20875;-80
2024/03/30 07:01:31;;;;;;;17.77;4.23;;;;;;;;;;5094937;28;20402;-80
2024/03/30 07:03:57;;;;;;;14.32;3.13;;;;;;;;;;5094977;28;20393;-80
2024/03/30 07:06:23;;;;;;;13.75;2.92;;;;;;;;;;5095282;28;20378;-81
2024/03/30 07:08:52;;;;;;;11.18;2.95;;;;;;;;;;5095316;28;21079;-80
2024/03/30 07:11:19;;;;;;;15.13;3.22;;;;;;;;;;5095670;28;20370;-81
2024/03/30 07:13:45;;;;;;;16.27;3.13;;;;;;;;;;5095364;28;20388;-80
2024/03/30 07:16:11;;;;;;;21.83;3.55;;;;;;;;;;5094432;28;20374;-80
2024/03/30 07:18:37;;;;;;;17.90;3.83;;;;;;;;;;5095145;28;20374;-80
2024/03/30 07:21:04;;;;;;;18.65;3.90;;;;;;;;;;5096465;28;20378;-80
2024/03/30 07:23:30;;;;;;;17.13;4.10;;;;;;;;;;5098567;28;20413;-81
2024/03/30 07:25:56;;;;;;;16.53;3.57;;;;;;;;;;5098850;28;20378;-81
2024/03/30 07:28:22;;;;;;;16.52;3.70;;;;;;;;;;5098561;28;20434;-81
2024/03/30 07:30:53;;;;;;;18.48;3.58;;;;;;;;;;5098676;28;20378;-81
2024/03/30 07:33:19;;;;;;;15.60;3.35;;;;;;;;;;5098364;28;20547;-81
2024/03/30 07:35:54;;;;;;;22.93;3.53;;;;;;;;;;5098597;28;20374;-81
2024/03/30 07:38:23;;;;;;;20.92;4.00;;;;;;;;;;5098016;28;20373;-81
2024/03/30 07:40:49;;;;;;;21.30;3.92;;;;;;;;;;5096983;28;20380;-81
2024/03/30 07:43:15;;;;;;;17.60;3.70;;;;;;;;;;5098659;28;20758;-80
2024/03/30 07:45:41;;;;;;;25.00;4.30;;;;;;;;;;5097879;28;20416;-81
2024/03/30 07:48:07;;;;;;;27.73;4.38;;;;;;;;;;5098029;28;20395;-81
2024/03/30 07:50:33;;;;;;;24.35;3.75;;;;;;;;;;5097173;28;20382;-80
2024/03/30 07:52:59;;;;;;;15.80;3.23;;;;;;;;;;5097881;28;20803;-81
2024/03/30 07:55:24;;;;;;;15.98;3.75;;;;;;;;;;5097972;28;20440;-81
2024/03/30 07:57:50;;;;;;;16.15;3.85;;;;;;;;;;5097569;28;20374;-81
2024/03/30 08:00:16;;;;;;;19.08;3.60;;;;;;;;;;5097014;28;20465;-81
2024/03/30 08:02:43;;;;;;;18.00;4.07;;;;;;;;;;5097087;28;20402;-81
2024/03/30 08:05:09;;;;;;;17.35;3.72;;;;;;;;;;5097744;28;20473;-81
2024/03/30 08:07:34;;;;;;;22.92;4.03;;;;;;;;;;5097064;28;20787;-81
2024/03/30 08:10:00;;;;;;;25.98;4.38;;;;;;;;;;5097491;28;20456;-81
2024/03/30 08:12:27;;;;;;;17.70;3.87;;;;;;;;;;5097480;28;20382;-81
2024/03/30 08:14:53;;;;;;;25.60;4.35;;;;;;;;;;5097069;28;20387;-81
2024/03/30 08:17:19;;;;;;;27.48;4.63;;;;;;;;;;5097285;28;20378;-81
2024/03/30 08:19:44;;;;;;;18.67;4.53;;;;;;;;;;5097003;28;20378;-81
2024/03/30 08:22:11;;;;;;;27.77;5.10;;;;;;;;;;5096935;28;20513;-81
2024/03/30 08:24:37;;;;;;;18.20;4.15;;;;;;;;;;5096558;28;20370;-80
2024/03/30 08:27:04;;;;;;;23.23;4.85;;;;;;;;;;5096919;28;20366;-81
2024/03/30 08:29:30;;;;;;;22.38;4.47;;;;;;;;;;5097228;28;20377;-81
2024/03/30 08:31:56;;;;;;;24.38;4.47;;;;;;;;;;5096347;28;20501;-81
2024/03/30 08:34:22;;;;;;;22.65;4.72;;;;;;;;;;5097043;28;20413;-81
2024/03/30 08:36:48;;;;;;;26.48;5.22;;;;;;;;;;5097048;28;20388;-81
2024/03/30 08:39:14;;;;;;;27.20;5.35;;;;;;;;;;5095305;28;20449;-81
2024/03/30 08:41:40;;;;;;;29.95;5.25;;;;;;;;;;5097215;28;20429;-81
2024/03/30 08:44:06;;;;;;;31.03;5.43;;;;;;;;;;5096773;28;20886;-81
2024/03/30 08:46:33;;;;;;;35.03;5.82;;;;;;;;;;5097089;28;20366;-81
2024/03/30 08:49:05;;;;;;;41.38;6.07;;;;;;;;;;5096816;28;20386;-81
2024/03/30 08:51:32;;;;;;;34.28;5.30;;;;;;;;;;5096775;28;20381;-81
2024/03/30 08:54:04;;;;;;;29.45;5.88;;;;;;;;;;5096339;28;20427;-81
2024/03/30 08:56:30;;;;;;;32.30;5.53;;;;;;;;;;5096289;28;20416;-81
2024/03/30 08:58:57;;;;;;;30.42;5.88;;;;;;;;;;5095773;28;20388;-81
2024/03/30 09:01:23;;;;;;;37.97;6.20;;;;;;;;;;5095899;28;20404;-81
2024/03/30 09:03:49;;;;;;;32.22;5.85;;;;;;;;;;5096562;28;20374;-81
2024/03/30 09:06:35;;;;;;;39.40;7.22;;;;;;;;;;5095713;28;20374;-81
2024/03/30 09:09:01;;;;;;;34.63;6.25;;;;;;;;;;5096484;28;20454;-81
2024/03/30 09:11:27;;;;;;;33.63;7.43;;;;;;;;;;5096588;28;20414;-81
2024/03/30 09:13:53;;;;;;;35.28;7.80;;;;;;;;;;5096333;28;20836;-81
2024/03/30 09:16:19;;;;;;;58.33;10.70;;;;;;;;;;5096030;28;20437;-81
2024/03/30 09:18:45;;;;;;;44.80;9.48;;;;;;;;;;5096192;28;20457;-81
2024/03/30 09:21:11;;;;;;;38.95;6.95;;;;;;;;;;5095716;28;20725;-81
2024/03/30 09:23:37;;;;;;;39.03;7.10;;;;;;;;;;5095186;28;20374;-81
2024/03/30 09:26:03;;;;;;;26.50;4.90;;;;;;;;;;5095701;28;20375;-81
2024/03/30 09:28:29;;;;;;;42.60;6.60;;;;;;;;;;5095451;28;20463;-81
2024/03/30 09:30:55;;;;;;;29.55;5.50;;;;;;;;;;5095496;28;20398;-81
2024/03/30 09:33:21;;;;;;;41.53;6.30;;;;;;;;;;5095650;28;20423;-81
2024/03/30 09:35:48;;;;;;;26.52;5.65;;;;;;;;;;5095833;28;20393;-81
2024/03/30 09:38:14;;;;;;;39.10;7.55;;;;;;;;;;5095777;28;20490;-81
2024/03/30 09:40:43;;;;;;;42.65;6.57;;;;;;;;;;5095695;28;20395;-81
2024/03/30 09:43:09;;;;;;;39.77;6.13;;;;;;;;;;5095259;28;20458;-81
2024/03/30 09:45:35;;;;;;;48.13;9.07;;;;;;;;;;5095083;28;20427;-81
2024/03/30 09:48:02;;;;;;;32.97;7.13;;;;;;;;;;5095552;28;20453;-81
2024/03/30 09:50:29;;;;;;;62.33;12.50;;;;;;;;;;5095282;28;20844;-81
2024/03/30 09:52:56;;;;;;;41.67;7.10;;;;;;;;;;5094971;28;20793;-81
2024/03/30 09:55:25;;;;;;;44.80;8.82;;;;;;;;;;5095827;28;20386;-81
2024/03/30 09:57:52;;;;;;;38.05;8.38;;;;;;;;;;5094949;28;20449;-81
2024/03/30 10:00:19;;;;;;;33.85;6.68;;;;;;;;;;5094986;28;20496;-81
2024/03/30 10:02:45;;;;;;;32.70;5.83;;;;;;;;;;5094920;28;20409;-81
2024/03/30 10:05:12;;;;;;;34.40;5.87;;;;;;;;;;5095890;28;20401;-81
2024/03/30 10:07:41;;;;;;;29.00;5.53;;;;;;;;;;5094871;28;20389;-81
2024/03/30 10:10:16;;;;;;;31.48;5.20;;;;;;;;;;5094775;28;20478;-81
2024/03/30 10:12:50;;;;;;;31.85;5.57;;;;;;;;;;5094859;28;20469;-81
2024/03/30 10:15:19;;;;;;;27.50;5.70;;;;;;;;;;5094930;28;20382;-81
2024/03/30 10:17:45;;;;;;;37.80;6.03;;;;;;;;;;5095031;28;20502;-81
2024/03/30 10:20:11;;;;;;;30.25;5.50;;;;;;;;;;5094746;28;20868;-81
2024/03/30 10:22:37;;;;;;;31.03;5.80;;;;;;;;;;5094976;28;20492;-81
2024/03/30 10:25:03;;;;;;;34.70;5.93;;;;;;;;;;5094696;28;20374;-81
2024/03/30 10:27:29;;;;;;;35.08;6.13;;;;;;;;;;5094556;28;20770;-81
2024/03/30 10:29:55;;;;;;;31.83;5.93;;;;;;;;;;5094506;28;20378;-81
2024/03/30 10:32:21;;;;;;;27.95;5.55;;;;;;;;;;5094427;28;20843;-81
2024/03/30 10:34:47;;;;;;;36.67;6.07;;;;;;;;;;5094970;28;20386;-81
2024/03/30 10:37:13;;;;;;;38.08;5.70;;;;;;;;;;5076455;28;20425;-81
2024/03/30 10:39:42;;;;;;;44.83;6.15;;;;;;;;;;5094941;28;20619;-81
2024/03/30 10:42:10;;;;;;;33.93;5.60;;;;;;;;;;5094315;28;20499;-81
2024/03/30 10:44:36;;;;;;;37.60;6.13;;;;;;;;;;5094615;28;20441;-81
2024/03/30 10:47:02;;;;;;;31.52;6.57;;;;;;;;;;5093823;28;20385;-81
2024/03/30 10:49:28;;;;;;;34.22;6.82;;;;;;;;;;5094252;28;20370;-81
2024/03/30 10:51:54;;;;;;;35.95;7.00;;;;;;;;;;5094923;28;20693;-81
2024/03/30 10:54:22;;;;;;;32.08;6.22;;;;;;;;;;5095218;28;20435;-81
2024/03/30 10:56:51;;;;;;;30.55;6.63;;;;;;;;;;5097603;28;20384;-81
2024/03/30 10:59:20;;;;;;;35.35;6.80;;;;;;;;;;5098924;28;20928;-81
2024/03/30 11:01:52;;;;;;;35.95;6.25;;;;;;;;;;5098261;28;20492;-81
2024/03/30 11:04:20;;;;;;;28.50;6.10;;;;;;;;;;5098925;28;20389;-81
2024/03/30 11:06:47;;;;;;;34.60;6.65;;;;;;;;;;5098537;28;20378;-81
2024/03/30 11:09:13;;;;;;;27.52;5.72;;;;;;;;;;5098424;28;20453;-81
2024/03/30 11:11:40;;;;;;;38.33;6.07;;;;;;;;;;5098209;28;20376;-81
2024/03/30 11:14:06;;;;;;;19.95;5.80;;;;;;;;;;5098203;28;20581;-81
2024/03/30 11:16:37;;;;;;;29.50;5.60;;;;;;;;;;5098069;28;20374;-81
2024/03/30 11:19:06;;;;;;;29.00;5.90;;;;;;;;;;5098354;28;20371;-81
2024/03/30 11:21:34;;;;;;;29.85;6.10;;;;;;;;;;5098489;28;20402;-81
2024/03/30 11:24:03;;;;;;;29.95;5.75;;;;;;;;;;5098271;28;20378;-81
2024/03/30 11:26:30;;;;;;;34.55;5.78;;;;;;;;;;5098158;28;20389;-81
2024/03/30 11:28:56;;;;;;;23.52;5.85;;;;;;;;;;5097831;28;20382;-81
2024/03/30 11:31:27;;;;;;;39.60;6.63;;;;;;;;;;5097573;28;20989;-81
2024/03/30 11:34:19;;;;;;;31.83;5.88;;;;;;;;;;5097682;28;20370;-81
2024/03/30 11:37:01;;;;;;;36.10;5.90;;;;;;;;;;5092023;28;20389;-81
2024/03/30 11:39:29;;;;;;;29.30;5.78;;;;;;;;;;5095990;28;20776;-81
2024/03/30 11:42:07;;;;;;;28.33;5.43;;;;;;;;;;5097732;28;20405;-81
2024/03/30 11:44:34;;;;;;;29.08;6.13;;;;;;;;;;5097477;28;20381;-81
2024/03/30 11:47:00;;;;;;;27.80;6.10;;;;;;;;;;5098134;28;20907;-81
2024/03/30 11:49:27;;;;;;;35.33;6.23;;;;;;;;;;5098545;28;20473;-81
2024/03/30 11:51:53;;;;;;;34.83;6.68;;;;;;;;;;5096089;28;20880;-81
2024/03/30 11:54:22;;;;;;;25.63;5.70;;;;;;;;;;5096748;28;20438;-81
2024/03/30 11:56:55;;;;;;;24.67;5.55;;;;;;;;;;5097403;28;20378;-81
2024/03/30 11:59:21;;;;;;;30.92;5.93;;;;;;;;;;5098072;28;20478;-81
2024/03/30 12:01:47;;;;;;;40.50;7.32;;;;;;;;;;5097471;28;20421;-81
2024/03/30 12:04:13;;;;;;;29.30;6.38;;;;;;;;;;5097292;28;20409;-81
2024/03/30 12:06:40;;;;;;;36.78;6.57;;;;;;;;;;5096564;28;20389;-81
2024/03/30 12:09:08;;;;;;;34.22;6.68;;;;;;;;;;5096670;28;20790;-81
2024/03/30 12:11:34;;;;;;;36.17;7.67;;;;;;;;;;5097402;28;20374;-81
2024/03/30 12:14:00;;;;;;;36.40;8.00;;;;;;;;;;5097353;28;20408;-81
2024/03/30 12:16:26;;;;;;;29.50;8.38;;;;;;;;;;5097023;28;20958;-81
2024/03/30 12:18:52;;;;;;;32.78;9.27;;;;;;;;;;5096950;28;20377;-81
2024/03/30 12:21:18;;;;;;;39.45;9.65;;;;;;;;;;5096762;28;20867;-81
2024/03/30 12:23:44;;;;;;;38.27;8.60;;;;;;;;;;5097517;28;20378;-81
2024/03/30 12:26:10;;;;;;;32.30;8.82;;;;;;;;;;5097499;28;20381;-81
2024/03/30 12:28:36;;;;;;;32.37;8.33;;;;;;;;;;5096594;28;20440;-81
2024/03/30 12:31:03;;;;;;;29.23;7.90;;;;;;;;;;5096781;28;20421;-81
2024/03/30 12:33:30;;;;;;;32.22;8.77;;;;;;;;;;5096691;28;20826;-81
2024/03/30 12:35:56;;;;;;;29.52;8.30;;;;;;;;;;5096721;28;20958;-81
2024/03/30 12:38:23;;;;;;;32.33;8.85;;;;;;;;;;5097064;28;20382;-81
2024/03/30 12:40:51;;;;;;;34.92;8.15;;;;;;;;;;5097544;28;20386;-81
2024/03/30 12:43:17;;;;;;;34.47;8.52;;;;;;;;;;5096901;28;20434;-81
2024/03/30 12:45:43;;;;;;;35.03;8.45;;;;;;;;;;5097395;28;20385;-81
2024/03/30 12:48:12;;;;;;;35.50;8.13;;;;;;;;;;5096933;28;20399;-81
2024/03/30 12:50:38;;;;;;;30.48;6.40;;;;;;;;;;5096951;28;20382;-82
2024/03/30 12:53:05;;;;;;;29.27;5.63;;;;;;;;;;5097456;28;20397;-81
2024/03/30 12:55:31;;;;;;;24.73;5.43;;;;;;;;;;5096960;28;20390;-81
2024/03/30 12:57:57;;;;;;;24.83;5.32;;;;;;;;;;5096885;28;20382;-81
2024/03/30 13:00:24;;;;;;;24.75;4.35;;;;;;;;;;5096528;28;20512;-81
2024/03/30 13:03:00;;;;;;;24.85;4.97;;;;;;;;;;5096790;28;20926;-81
2024/03/30 13:05:33;;;;;;;23.50;4.47;;;;;;;;;;5096277;28;20389;-81
2024/03/30 13:08:01;;;;;;;27.48;4.72;;;;;;;;;;5096557;28;20455;-82
2024/03/30 13:10:27;;;;;;;39.40;5.63;;;;;;;;;;5096295;28;20417;-81
2024/03/30 13:12:53;;;;;;;28.42;4.95;;;;;;;;;;5096378;28;20378;-81
2024/03/30 13:15:20;;;;;;;30.48;5.63;;;;;;;;;;5096335;28;20378;-81
2024/03/30 13:17:46;;;;;;;26.33;5.18;;;;;;;;;;5095453;28;20378;-81
2024/03/30 13:20:13;;;;;;;24.08;5.00;;;;;;;;;;5096188;28;20393;-82
2024/03/30 13:22:40;;;;;;;27.15;6.00;;;;;;;;;;5097084;28;20398;-82
2024/03/30 13:25:07;;;;;;;24.60;5.68;;;;;;;;;;5095334;28;20386;-81
2024/03/30 13:27:33;;;;;;;21.08;4.88;;;;;;;;;;5095349;28;20374;-82
2024/03/30 13:29:59;;;;;;;34.00;6.32;;;;;;;;;;5077664;28;20797;-81
2024/03/30 13:32:25;;;;;;;34.78;5.35;;;;;;;;;;5095806;28;20752;-82
2024/03/30 13:34:51;;;;;;;32.88;5.85;;;;;;;;;;5096037;28;20984;-82
2024/03/30 13:37:17;;;;;;;28.83;5.00;;;;;;;;;;5095742;28;20407;-82
2024/03/30 13:39:43;;;;;;;34.87;5.57;;;;;;;;;;5096055;28;20374;-82
2024/03/30 13:42:09;;;;;;;27.25;5.28;;;;;;;;;;5095903;28;20404;-82
2024/03/30 13:44:35;;;;;;;27.77;5.15;;;;;;;;;;5095916;28;20719;-81
2024/03/30 13:47:01;;;;;;;32.85;5.32;;;;;;;;;;5095604;28;20385;-82
2024/03/30 13:49:27;;;;;;;33.28;5.20;;;;;;;;;;5095064;28;20431;-82
2024/03/30 13:51:53;;;;;;;35.30;5.65;;;;;;;;;;5095665;28;20389;-82
2024/03/30 13:54:19;;;;;;;32.13;5.22;;;;;;;;;;5094844;28;20457;-81
2024/03/30 13:56:45;;;;;;;28.55;5.32;;;;;;;;;;5095689;28;20378;-81
2024/03/30 13:59:11;;;;;;;36.70;5.13;;;;;;;;;;5095022;28;20378;-81
2024/03/30 14:01:37;;;;;;;33.55;5.18;;;;;;;;;;5095876;28;20382;-82
2024/03/30 14:04:03;;;;;;;36.83;5.97;;;;;;;;;;5095562;28;20727;-82
2024/03/30 14:06:29;;;;;;;34.55;5.70;;;;;;;;;;5095122;28;20461;-82
2024/03/30 14:08:55;;;;;;;32.30;5.57;;;;;;;;;;5095602;28;20843;-81
2024/03/30 14:11:21;;;;;;;41.47;5.22;;;;;;;;;;5095335;28;20396;-81
2024/03/30 14:13:47;;;;;;;46.70;6.72;;;;;;;;;;5095366;28;20844;-81
2024/03/30 14:16:13;;;;;;;45.45;7.10;;;;;;;;;;5094831;28;20386;-82
2024/03/30 14:18:39;;;;;;;48.10;7.47;;;;;;;;;;5094524;28;20385;-81
2024/03/30 14:21:05;;;;;;;51.50;6.93;;;;;;;;;;5094723;28;20461;-81
2024/03/30 14:23:31;;;;;;;46.63;6.68;;;;;;;;;;5094313;28;20406;-82
2024/03/30 14:25:57;;;;;;;51.60;7.13;;;;;;;;;;5095077;28;20374;-81
2024/03/30 14:28:23;;;;;;;51.17;7.65;;;;;;;;;;5094770;28;20408;-81
2024/03/30 14:30:50;;;;;;;47.22;6.68;;;;;;;;;;5094621;28;20443;-81
2024/03/30 14:33:16;;;;;;;41.53;6.47;;;;;;;;;;5094692;28;20410;-81